createdAt,value
2017-04-18T00:00:16.419Z,1004.38
2017-04-18T00:01:16.435Z,1004.42
2017-04-18T00:02:16.450Z,1004.34
2017-04-18T00:03:16.465Z,1004.36
2017-04-18T00:04:16.481Z,1004.34
2017-04-18T00:05:16.497Z,1004.39
2017-04-18T00:06:16.512Z,1004.34
2017-04-18T00:07:16.528Z,1004.35
2017-04-18T00:08:16.543Z,1004.33
2017-04-18T00:09:16.560Z,1004.36
2017-04-18T00:10:16.575Z,1004.32
2017-04-18T00:11:16.590Z,1004.33
2017-04-18T00:12:16.606Z,1004.31
2017-04-18T00:13:16.622Z,1004.31
2017-04-18T00:14:16.637Z,1004.32
2017-04-18T00:15:16.653Z,1004.32
2017-04-18T00:16:16.668Z,1004.34
2017-04-18T00:17:16.685Z,1004.29
2017-04-18T00:18:16.701Z,1004.28
2017-04-18T00:19:16.728Z,1004.35
2017-04-18T00:20:16.731Z,1004.31
2017-04-18T00:21:16.747Z,1004.33
2017-04-18T00:22:16.762Z,1004.32
2017-04-18T00:23:16.778Z,1004.34
2017-04-18T00:24:16.794Z,1004.3
2017-04-18T00:25:16.808Z,1004.31
2017-04-18T00:26:16.824Z,1004.27
2017-04-18T00:27:16.840Z,1004.28
2017-04-18T00:28:16.859Z,1004.26
2017-04-18T00:29:16.870Z,1004.28
2017-04-18T00:30:16.886Z,1004.25
2017-04-18T00:31:16.902Z,1004.3
2017-04-18T00:32:16.917Z,1004.3
2017-04-18T00:33:16.935Z,1004.32
2017-04-18T00:34:16.948Z,1004.3
2017-04-18T00:35:16.964Z,1004.28
2017-04-18T00:36:16.978Z,1004.28
2017-04-18T00:37:16.995Z,1004.28
2017-04-18T00:38:17.010Z,1004.3
2017-04-18T00:39:17.028Z,1004.29
2017-04-18T00:40:17.041Z,1004.33
2017-04-18T00:41:17.057Z,1004.29
2017-04-18T00:42:17.073Z,1004.26
2017-04-18T00:43:17.087Z,1004.29
2017-04-18T00:44:17.103Z,1004.28
2017-04-18T00:45:17.118Z,1004.29
2017-04-18T00:46:17.134Z,1004.28
2017-04-18T00:47:17.149Z,1004.29
2017-04-18T00:48:17.165Z,1004.32
2017-04-18T00:49:17.180Z,1004.27
2017-04-18T00:50:17.197Z,1004.33
2017-04-18T00:51:17.212Z,1004.29
2017-04-18T00:52:17.229Z,1004.31
2017-04-18T00:53:17.242Z,1004.3
2017-04-18T00:54:17.259Z,1004.31
2017-04-18T00:55:17.271Z,1004.3
2017-04-18T00:56:17.288Z,1004.31
2017-04-18T00:57:17.303Z,1004.29
2017-04-18T00:58:17.318Z,1004.28
2017-04-18T00:59:17.333Z,1004.31
2017-04-18T01:00:17.349Z,1004.3
2017-04-18T01:01:17.365Z,1004.35
2017-04-18T01:02:17.408Z,1004.34
2017-04-18T01:03:17.396Z,1004.31
2017-04-18T01:04:17.412Z,1004.29
2017-04-18T01:05:17.425Z,1004.32
2017-04-18T01:06:17.441Z,1004.31
2017-04-18T01:07:17.458Z,1004.3
2017-04-18T01:08:17.472Z,1004.28
2017-04-18T01:09:17.487Z,1004.28
2017-04-18T01:10:17.502Z,1004.3
2017-04-18T01:11:17.518Z,1004.29
2017-04-18T01:12:17.532Z,1004.29
2017-04-18T01:13:17.547Z,1004.26
2017-04-18T01:14:17.564Z,1004.26
2017-04-18T01:15:17.579Z,1004.24
2017-04-18T01:16:17.593Z,1004.28
2017-04-18T01:17:17.609Z,1004.29
2017-04-18T01:18:17.624Z,1004.28
2017-04-18T01:19:17.642Z,1004.29
2017-04-18T01:20:17.655Z,1004.27
2017-04-18T01:21:17.670Z,1004.3
2017-04-18T01:22:17.685Z,1004.31
2017-04-18T01:23:17.700Z,1004.27
2017-04-18T01:24:17.714Z,1004.27
2017-04-18T01:25:17.731Z,1004.28
2017-04-18T01:26:17.746Z,1004.3
2017-04-18T01:27:17.760Z,1004.29
2017-04-18T01:28:17.778Z,1004.3
2017-04-18T01:29:17.793Z,1004.33
2017-04-18T01:30:17.807Z,1004.35
2017-04-18T01:31:17.821Z,1004.34
2017-04-18T01:32:17.838Z,1004.34
2017-04-18T01:33:17.851Z,1004.32
2017-04-18T01:34:17.871Z,1004.35
2017-04-18T01:35:17.883Z,1004.35
2017-04-18T01:36:17.898Z,1004.32
2017-04-18T01:37:17.913Z,1004.33
2017-04-18T01:38:17.928Z,1004.34
2017-04-18T01:39:17.949Z,1004.33
2017-04-18T01:40:17.958Z,1004.3
2017-04-18T01:41:17.974Z,1004.29
2017-04-18T01:42:17.987Z,1004.31
2017-04-18T01:43:18.004Z,1004.31
2017-04-18T01:44:18.019Z,1004.3
2017-04-18T01:45:18.033Z,1004.31
2017-04-18T01:46:18.048Z,1004.32
2017-04-18T01:47:18.073Z,1004.31
2017-04-18T01:48:18.079Z,1004.34
2017-04-18T01:49:18.095Z,1004.33
2017-04-18T01:50:18.108Z,1004.31
2017-04-18T01:51:18.124Z,1004.35
2017-04-18T01:52:18.141Z,1004.39
2017-04-18T01:53:18.155Z,1004.41
2017-04-18T01:54:18.171Z,1004.38
2017-04-18T01:55:18.187Z,1004.42
2017-04-18T01:56:18.202Z,1004.45
2017-04-18T01:57:18.214Z,1004.43
2017-04-18T01:58:18.230Z,1004.42
2017-04-18T01:59:18.249Z,1004.42
2017-04-18T02:00:18.261Z,1004.44
2017-04-18T02:01:18.277Z,1004.41
2017-04-18T02:02:18.291Z,1004.44
2017-04-18T02:03:18.306Z,1004.42
2017-04-18T02:04:18.329Z,1004.41
2017-04-18T02:05:18.335Z,1004.44
2017-04-18T02:06:18.352Z,1004.44
2017-04-18T02:07:18.368Z,1004.41
2017-04-18T02:08:18.383Z,1004.42
2017-04-18T02:09:18.397Z,1004.4
2017-04-18T02:10:18.413Z,1004.45
2017-04-18T02:11:18.427Z,1004.44
2017-04-18T02:12:18.444Z,1004.46
2017-04-18T02:13:18.459Z,1004.43
2017-04-18T02:14:18.473Z,1004.44
2017-04-18T02:15:18.488Z,1004.47
2017-04-18T02:16:18.502Z,1004.5
2017-04-18T02:17:18.517Z,1004.47
2017-04-18T02:18:18.533Z,1004.47
2017-04-18T02:19:18.547Z,1004.51
2017-04-18T02:20:18.563Z,1004.49
2017-04-18T02:21:18.578Z,1004.46
2017-04-18T02:22:18.592Z,1004.43
2017-04-18T02:23:18.607Z,1004.47
2017-04-18T02:24:18.629Z,1004.48
2017-04-18T02:25:18.639Z,1004.46
2017-04-18T02:26:18.655Z,1004.44
2017-04-18T02:27:18.669Z,1004.42
2017-04-18T02:28:18.684Z,1004.41
2017-04-18T02:29:18.699Z,1004.46
2017-04-18T02:30:18.713Z,1004.43
2017-04-18T02:31:18.728Z,1004.41
2017-04-18T02:32:18.746Z,1004.44
2017-04-18T02:33:18.758Z,1004.42
2017-04-18T02:34:18.774Z,1004.44
2017-04-18T02:35:18.789Z,1004.45
2017-04-18T02:36:18.803Z,1004.46
2017-04-18T02:37:18.820Z,1004.5
2017-04-18T02:38:18.836Z,1004.48
2017-04-18T02:39:18.848Z,1004.47
2017-04-18T02:40:18.864Z,1004.47
2017-04-18T02:41:18.880Z,1004.5
2017-04-18T02:42:18.893Z,1004.47
2017-04-18T02:43:18.910Z,1004.46
2017-04-18T02:44:18.923Z,1004.45
2017-04-18T02:45:18.939Z,1004.49
2017-04-18T02:46:18.956Z,1004.48
2017-04-18T02:47:18.969Z,1004.47
2017-04-18T02:48:18.984Z,1004.5
2017-04-18T02:49:18.999Z,1004.48
2017-04-18T02:50:19.015Z,1004.45
2017-04-18T02:51:19.029Z,1004.46
2017-04-18T02:52:19.043Z,1004.47
2017-04-18T02:53:19.060Z,1004.5
2017-04-18T02:54:19.077Z,1004.48
2017-04-18T02:55:19.089Z,1004.47
2017-04-18T02:56:19.104Z,1004.49
2017-04-18T02:57:19.120Z,1004.49
2017-04-18T02:58:19.135Z,1004.52
2017-04-18T02:59:19.153Z,1004.49
2017-04-18T03:00:19.167Z,1004.5
2017-04-18T03:01:19.181Z,1004.49
2017-04-18T03:02:19.193Z,1004.51
2017-04-18T03:03:19.209Z,1004.48
2017-04-18T03:04:19.225Z,1004.52
2017-04-18T03:05:19.240Z,1004.54
2017-04-18T03:06:19.253Z,1004.51
2017-04-18T03:07:19.272Z,1004.49
2017-04-18T03:08:19.284Z,1004.51
2017-04-18T03:09:19.302Z,1004.53
2017-04-18T03:10:19.314Z,1004.55
2017-04-18T03:11:19.330Z,1004.49
2017-04-18T03:12:19.346Z,1004.5
2017-04-18T03:13:19.360Z,1004.52
2017-04-18T03:14:19.375Z,1004.51
2017-04-18T03:15:19.390Z,1004.5
2017-04-18T03:16:19.406Z,1004.51
2017-04-18T03:17:19.420Z,1004.58
2017-04-18T03:18:19.435Z,1004.53
2017-04-18T03:19:19.450Z,1004.52
2017-04-18T03:20:19.465Z,1004.55
2017-04-18T03:21:19.479Z,1004.56
2017-04-18T03:22:19.494Z,1004.55
2017-04-18T03:23:19.511Z,1004.58
2017-04-18T03:24:19.526Z,1004.57
2017-04-18T03:25:19.540Z,1004.56
2017-04-18T03:26:19.554Z,1004.56
2017-04-18T03:27:19.570Z,1004.54
2017-04-18T03:28:19.584Z,1004.58
2017-04-18T03:29:19.599Z,1004.59
2017-04-18T03:30:19.614Z,1004.6
2017-04-18T03:31:19.630Z,1004.61
2017-04-18T03:32:19.643Z,1004.62
2017-04-18T03:33:19.659Z,1004.61
2017-04-18T03:34:19.674Z,1004.61
2017-04-18T03:35:19.687Z,1004.61
2017-04-18T03:36:19.731Z,1004.6
2017-04-18T03:37:19.744Z,1004.66
2017-04-18T03:38:19.733Z,1004.66
2017-04-18T03:39:19.749Z,1004.7
2017-04-18T03:40:19.762Z,1004.68
2017-04-18T03:41:19.778Z,1004.7
2017-04-18T03:42:19.793Z,1004.72
2017-04-18T03:43:19.808Z,1004.75
2017-04-18T03:44:19.824Z,1004.69
2017-04-18T03:45:19.839Z,1004.77
2017-04-18T03:46:19.854Z,1004.73
2017-04-18T03:47:19.869Z,1004.77
2017-04-18T03:48:19.883Z,1004.73
2017-04-18T03:49:19.899Z,1004.73
2017-04-18T03:50:19.913Z,1004.78
2017-04-18T03:51:19.927Z,1004.77
2017-04-18T03:52:19.950Z,1004.76
2017-04-18T03:53:19.957Z,1004.81
2017-04-18T03:54:19.971Z,1004.82
2017-04-18T03:55:19.987Z,1004.82
2017-04-18T03:56:20.117Z,1004.79
2017-04-18T03:57:20.126Z,1004.84
2017-04-18T03:58:20.135Z,1004.84
2017-04-18T03:59:20.143Z,1004.86
2017-04-18T04:00:20.062Z,1004.85
2017-04-18T04:01:20.175Z,1004.84
2017-04-18T04:02:20.184Z,1004.84
2017-04-18T04:03:20.194Z,1004.81
2017-04-18T04:04:20.153Z,1004.85
2017-04-18T04:05:20.160Z,1004.86
2017-04-18T04:06:20.168Z,1004.86
2017-04-18T04:07:20.313Z,1004.89
2017-04-18T04:08:20.178Z,1004.92
2017-04-18T04:09:20.195Z,1004.9
2017-04-18T04:10:20.329Z,1004.88
2017-04-18T04:11:20.338Z,1004.9
2017-04-18T04:12:20.374Z,1004.89
2017-04-18T04:13:20.356Z,1004.92
2017-04-18T04:14:20.278Z,1004.89
2017-04-18T04:15:20.291Z,1004.94
2017-04-18T04:16:20.299Z,1004.9
2017-04-18T04:17:20.434Z,1004.93
2017-04-18T04:18:20.420Z,1004.9
2017-04-18T04:19:20.429Z,1004.94
2017-04-18T04:20:20.411Z,1004.91
2017-04-18T04:21:20.419Z,1004.93
2017-04-18T04:22:20.488Z,1004.96
2017-04-18T04:23:20.428Z,1004.94
2017-04-18T04:24:20.437Z,1004.91
2017-04-18T04:25:20.444Z,1004.94
2017-04-18T04:26:20.455Z,1004.94
2017-04-18T04:27:20.511Z,1004.93
2017-04-18T04:28:20.476Z,1004.96
2017-04-18T04:29:20.491Z,1004.93
2017-04-18T04:30:20.505Z,1004.98
2017-04-18T04:31:20.520Z,1004.95
2017-04-18T04:32:20.537Z,1005.01
2017-04-18T04:33:20.551Z,1004.98
2017-04-18T04:34:20.564Z,1005
2017-04-18T04:35:20.578Z,1005.02
2017-04-18T04:36:20.594Z,1005.06
2017-04-18T04:37:20.608Z,1005.05
2017-04-18T04:38:20.622Z,1005.05
2017-04-18T04:39:20.638Z,1005.1
2017-04-18T04:40:20.652Z,1005.08
2017-04-18T04:41:20.668Z,1005.08
2017-04-18T04:42:20.732Z,1005.1
2017-04-18T04:43:20.697Z,1005.13
2017-04-18T04:44:20.712Z,1005.12
2017-04-18T04:45:20.727Z,1005.12
2017-04-18T04:46:20.741Z,1005.12
2017-04-18T04:47:20.755Z,1005.11
2017-04-18T04:48:20.769Z,1005.13
2017-04-18T04:49:20.785Z,1005.14
2017-04-18T04:50:20.799Z,1005.06
2017-04-18T04:51:20.814Z,1005.12
2017-04-18T04:52:20.829Z,1005.15
2017-04-18T04:53:20.843Z,1005.13
2017-04-18T04:54:20.858Z,1005.13
2017-04-18T04:55:20.873Z,1005.19
2017-04-18T04:56:20.887Z,1005.18
2017-04-18T04:57:20.902Z,1005.22
2017-04-18T04:58:20.917Z,1005.25
2017-04-18T04:59:20.930Z,1005.22
2017-04-18T05:00:20.946Z,1005.22
2017-04-18T05:01:20.962Z,1005.23
2017-04-18T05:02:20.978Z,1005.29
2017-04-18T05:03:20.992Z,1005.29
2017-04-18T05:04:21.004Z,1005.27
2017-04-18T05:05:21.020Z,1005.32
2017-04-18T05:06:21.034Z,1005.34
2017-04-18T05:07:21.047Z,1005.37
2017-04-18T05:08:21.063Z,1005.34
2017-04-18T05:09:21.079Z,1005.37
2017-04-18T05:10:21.090Z,1005.4
2017-04-18T05:11:21.107Z,1005.4
2017-04-18T05:12:21.121Z,1005.38
2017-04-18T05:13:21.136Z,1005.41
2017-04-18T05:14:21.150Z,1005.42
2017-04-18T05:15:21.163Z,1005.41
2017-04-18T05:16:21.180Z,1005.44
2017-04-18T05:17:21.195Z,1005.45
2017-04-18T05:18:21.209Z,1005.46
2017-04-18T05:19:21.224Z,1005.47
2017-04-18T05:20:21.238Z,1005.45
2017-04-18T05:21:21.252Z,1005.47
2017-04-18T05:22:21.268Z,1005.5
2017-04-18T05:23:21.282Z,1005.49
2017-04-18T05:24:21.298Z,1005.48
2017-04-18T05:25:21.311Z,1005.49
2017-04-18T05:26:21.327Z,1005.53
2017-04-18T05:27:21.342Z,1005.54
2017-04-18T05:28:21.360Z,1005.55
2017-04-18T05:29:21.369Z,1005.61
2017-04-18T05:30:21.397Z,1005.56
2017-04-18T05:31:21.400Z,1005.59
2017-04-18T05:32:21.413Z,1005.6
2017-04-18T05:33:21.430Z,1005.66
2017-04-18T05:34:21.443Z,1005.65
2017-04-18T05:35:21.458Z,1005.64
2017-04-18T05:36:21.471Z,1005.68
2017-04-18T05:37:21.486Z,1005.73
2017-04-18T05:38:21.500Z,1005.76
2017-04-18T05:39:21.518Z,1005.71
2017-04-18T05:40:21.530Z,1005.75
2017-04-18T05:41:21.545Z,1005.77
2017-04-18T05:42:21.558Z,1005.75
2017-04-18T05:43:21.571Z,1005.79
2017-04-18T05:44:21.588Z,1005.78
2017-04-18T05:45:21.604Z,1005.76
2017-04-18T05:46:21.616Z,1005.77
2017-04-18T05:47:21.632Z,1005.79
2017-04-18T05:48:21.645Z,1005.77
2017-04-18T05:49:21.660Z,1005.8
2017-04-18T05:50:21.673Z,1005.82
2017-04-18T05:51:21.688Z,1005.83
2017-04-18T05:52:21.702Z,1005.78
2017-04-18T05:53:21.719Z,1005.85
2017-04-18T05:54:21.731Z,1005.86
2017-04-18T05:55:21.747Z,1005.84
2017-04-18T05:56:21.761Z,1005.91
2017-04-18T05:57:21.776Z,1005.93
2017-04-18T05:58:21.789Z,1005.91
2017-04-18T05:59:21.804Z,1005.92
2017-04-18T06:00:21.819Z,1005.97
2017-04-18T06:01:21.831Z,1005.96
2017-04-18T06:02:21.847Z,1005.97
2017-04-18T06:03:21.865Z,1005.94
2017-04-18T06:04:21.878Z,1006.02
2017-04-18T06:05:21.893Z,1006.03
2017-04-18T06:06:21.904Z,1006.02
2017-04-18T06:07:21.918Z,1006.04
2017-04-18T06:08:21.933Z,1006.07
2017-04-18T06:09:21.948Z,1006.07
2017-04-18T06:10:21.962Z,1006.09
2017-04-18T06:11:21.975Z,1006.11
2017-04-18T06:12:21.992Z,1006.14
2017-04-18T06:13:22.005Z,1006.15
2017-04-18T06:14:22.020Z,1006.16
2017-04-18T06:15:22.035Z,1006.18
2017-04-18T06:16:22.052Z,1006.19
2017-04-18T06:17:22.066Z,1006.2
2017-04-18T06:18:22.078Z,1006.21
2017-04-18T06:19:22.093Z,1006.2
2017-04-18T06:20:22.106Z,1006.21
2017-04-18T06:21:22.119Z,1006.22
2017-04-18T06:22:22.137Z,1006.25
2017-04-18T06:23:22.149Z,1006.23
2017-04-18T06:24:22.164Z,1006.26
2017-04-18T06:25:22.179Z,1006.27
2017-04-18T06:26:22.193Z,1006.31
2017-04-18T06:27:22.206Z,1006.28
2017-04-18T06:28:22.222Z,1006.34
2017-04-18T06:29:22.237Z,1006.36
2017-04-18T06:30:22.250Z,1006.35
2017-04-18T06:31:22.268Z,1006.37
2017-04-18T06:32:22.280Z,1006.34
2017-04-18T06:33:22.298Z,1006.39
2017-04-18T06:34:22.311Z,1006.41
2017-04-18T06:35:22.322Z,1006.42
2017-04-18T06:36:22.338Z,1006.41
2017-04-18T06:37:22.354Z,1006.44
2017-04-18T06:38:22.366Z,1006.43
2017-04-18T06:39:22.379Z,1006.43
2017-04-18T06:40:22.394Z,1006.46
2017-04-18T06:41:22.409Z,1006.43
2017-04-18T06:42:22.422Z,1006.44
2017-04-18T06:43:22.437Z,1006.46
2017-04-18T06:44:22.452Z,1006.48
2017-04-18T06:45:22.465Z,1006.51
2017-04-18T06:46:22.481Z,1006.54
2017-04-18T06:47:22.495Z,1006.55
2017-04-18T06:48:22.509Z,1006.57
2017-04-18T06:49:22.524Z,1006.57
2017-04-18T06:50:22.540Z,1006.61
2017-04-18T06:51:22.552Z,1006.59
2017-04-18T06:52:22.566Z,1006.63
2017-04-18T06:53:22.583Z,1006.63
2017-04-18T06:54:22.597Z,1006.65
2017-04-18T06:55:22.611Z,1006.64
2017-04-18T06:56:22.626Z,1006.68
2017-04-18T06:57:22.642Z,1006.71
2017-04-18T06:58:22.688Z,1006.73
2017-04-18T06:59:22.669Z,1006.74
2017-04-18T07:00:22.684Z,1006.72
2017-04-18T07:01:22.698Z,1006.73
2017-04-18T07:02:22.716Z,1006.75
2017-04-18T07:03:22.727Z,1006.74
2017-04-18T07:04:22.742Z,1006.74
2017-04-18T07:05:22.757Z,1006.75
2017-04-18T07:06:22.772Z,1006.77
2017-04-18T07:07:22.784Z,1006.81
2017-04-18T07:08:22.798Z,1006.78
2017-04-18T07:09:22.815Z,1006.83
2017-04-18T07:10:22.829Z,1006.78
2017-04-18T07:11:22.843Z,1006.8
2017-04-18T07:12:22.857Z,1006.81
2017-04-18T07:13:22.873Z,1006.82
2017-04-18T07:14:22.884Z,1006.83
2017-04-18T07:15:22.899Z,1006.82
2017-04-18T07:16:22.915Z,1006.83
2017-04-18T07:17:22.930Z,1006.86
2017-04-18T07:18:22.943Z,1006.88
2017-04-18T07:19:22.958Z,1006.85
2017-04-18T07:20:22.972Z,1006.86
2017-04-18T07:21:22.987Z,1006.89
2017-04-18T07:22:23.001Z,1006.89
2017-04-18T07:23:23.016Z,1006.89
2017-04-18T07:24:23.031Z,1006.94
2017-04-18T07:25:23.045Z,1006.95
2017-04-18T07:26:23.059Z,1006.98
2017-04-18T07:27:23.074Z,1006.97
2017-04-18T07:28:23.088Z,1006.95
2017-04-18T07:29:23.102Z,1006.99
2017-04-18T07:30:23.118Z,1007.03
2017-04-18T07:31:23.131Z,1007.01
2017-04-18T07:32:23.146Z,1007.01
2017-04-18T07:33:23.159Z,1007.04
2017-04-18T07:34:23.178Z,1007.02
2017-04-18T07:35:23.190Z,1007.06
2017-04-18T07:36:23.203Z,1007.07
2017-04-18T07:37:23.221Z,1007.09
2017-04-18T07:38:23.232Z,1007.09
2017-04-18T07:39:23.250Z,1007.13
2017-04-18T07:40:23.263Z,1007.1
2017-04-18T07:41:23.279Z,1007.11
2017-04-18T07:42:23.292Z,1007.15
2017-04-18T07:43:23.306Z,1007.08
2017-04-18T07:44:23.324Z,1007.1
2017-04-18T07:45:23.336Z,1007.11
2017-04-18T07:46:23.350Z,1007.1
2017-04-18T07:47:23.366Z,1007.1
2017-04-18T07:48:23.380Z,1007.07
2017-04-18T07:49:23.397Z,1007.07
2017-04-18T07:50:23.411Z,1007.08
2017-04-18T07:51:23.422Z,1007.06
2017-04-18T07:52:23.438Z,1007.09
2017-04-18T07:53:23.455Z,1007.09
2017-04-18T07:54:23.468Z,1007.09
2017-04-18T07:55:23.485Z,1007.1
2017-04-18T07:56:23.500Z,1007.11
2017-04-18T07:57:23.515Z,1007.13
2017-04-18T07:58:23.528Z,1007.11
2017-04-18T07:59:23.542Z,1007.17
2017-04-18T08:00:23.558Z,1007.17
2017-04-18T08:01:23.574Z,1007.17
2017-04-18T08:02:23.588Z,1007.22
2017-04-18T08:03:23.602Z,1007.24
2017-04-18T08:04:23.618Z,1007.27
2017-04-18T08:05:23.633Z,1007.27
2017-04-18T08:06:23.648Z,1007.29
2017-04-18T08:07:23.662Z,1007.29
2017-04-18T08:08:23.677Z,1007.31
2017-04-18T08:09:23.691Z,1007.3
2017-04-18T08:10:23.706Z,1007.31
2017-04-18T08:11:23.722Z,1007.34
2017-04-18T08:12:23.738Z,1007.34
2017-04-18T08:13:23.752Z,1007.33
2017-04-18T08:14:23.768Z,1007.34
2017-04-18T08:15:23.781Z,1007.41
2017-04-18T08:16:23.796Z,1007.47
2017-04-18T08:17:23.811Z,1007.5
2017-04-18T08:18:23.826Z,1007.47
2017-04-18T08:19:23.841Z,1007.51
2017-04-18T08:20:23.857Z,1007.56
2017-04-18T08:21:23.871Z,1007.54
2017-04-18T08:22:23.887Z,1007.59
2017-04-18T08:23:23.902Z,1007.57
2017-04-18T08:24:23.916Z,1007.6
2017-04-18T08:25:23.930Z,1007.67
2017-04-18T08:26:23.946Z,1007.63
2017-04-18T08:27:23.962Z,1007.68
2017-04-18T08:28:23.977Z,1007.69
2017-04-18T08:29:23.991Z,1007.73
2017-04-18T08:30:24.008Z,1007.78
2017-04-18T08:31:24.022Z,1007.82
2017-04-18T08:32:24.036Z,1007.82
2017-04-18T08:33:24.051Z,1007.86
2017-04-18T08:34:24.066Z,1007.84
2017-04-18T08:35:24.080Z,1007.86
2017-04-18T08:36:24.096Z,1007.86
2017-04-18T08:37:24.113Z,1007.87
2017-04-18T08:38:24.126Z,1007.91
2017-04-18T08:39:24.141Z,1007.89
2017-04-18T08:40:24.156Z,1007.87
2017-04-18T08:41:24.171Z,1007.91
2017-04-18T08:42:24.186Z,1007.86
2017-04-18T08:43:24.202Z,1007.88
2017-04-18T08:44:24.217Z,1007.9
2017-04-18T08:45:24.232Z,1007.94
2017-04-18T08:46:24.246Z,1007.92
2017-04-18T08:47:24.261Z,1007.92
2017-04-18T08:48:24.277Z,1007.92
2017-04-18T08:49:24.295Z,1007.94
2017-04-18T08:50:24.307Z,1007.96
2017-04-18T08:51:24.323Z,1007.98
2017-04-18T08:52:24.337Z,1007.96
2017-04-18T08:53:24.351Z,1008.01
2017-04-18T08:54:24.368Z,1008.01
2017-04-18T08:55:24.384Z,1008.01
2017-04-18T08:56:24.398Z,1008.01
2017-04-18T08:57:24.412Z,1008
2017-04-18T08:58:24.428Z,1008.05
2017-04-18T08:59:24.445Z,1008.02
2017-04-18T09:00:24.459Z,1008.04
2017-04-18T09:01:24.474Z,1008.01
2017-04-18T09:02:24.490Z,1008.01
2017-04-18T09:03:24.505Z,1008.03
2017-04-18T09:04:24.521Z,1007.99
2017-04-18T09:05:24.534Z,1008
2017-04-18T09:06:24.553Z,1008.01
2017-04-18T09:07:24.567Z,1008
2017-04-18T09:08:24.582Z,1008.05
2017-04-18T09:09:24.599Z,1008.1
2017-04-18T09:10:24.613Z,1008.17
2017-04-18T09:11:24.629Z,1008.15
2017-04-18T09:12:24.645Z,1008.15
2017-04-18T09:13:24.659Z,1008.18
2017-04-18T09:14:24.677Z,1008.21
2017-04-18T09:15:24.690Z,1008.21
2017-04-18T09:16:24.707Z,1008.2
2017-04-18T09:17:24.722Z,1008.25
2017-04-18T09:18:24.739Z,1008.29
2017-04-18T09:19:24.752Z,1008.25
2017-04-18T09:20:24.769Z,1008.25
2017-04-18T09:21:24.785Z,1008.24
2017-04-18T09:22:24.799Z,1008.26
2017-04-18T09:23:24.816Z,1008.26
2017-04-18T09:24:24.832Z,1008.26
2017-04-18T09:25:24.848Z,1008.29
2017-04-18T09:26:24.862Z,1008.27
2017-04-18T09:27:24.880Z,1008.27
2017-04-18T09:28:24.894Z,1008.29
2017-04-18T09:29:24.909Z,1008.28
2017-04-18T09:30:24.925Z,1008.28
2017-04-18T09:31:24.943Z,1008.28
2017-04-18T09:32:24.957Z,1008.33
2017-04-18T09:33:24.971Z,1008.35
2017-04-18T09:34:24.989Z,1008.33
2017-04-18T09:35:25.003Z,1008.34
2017-04-18T09:36:25.020Z,1008.36
2017-04-18T09:37:25.034Z,1008.33
2017-04-18T09:38:25.050Z,1008.37
2017-04-18T09:39:25.067Z,1008.35
2017-04-18T09:40:25.083Z,1008.39
2017-04-18T09:41:25.097Z,1008.39
2017-04-18T09:42:25.113Z,1008.37
2017-04-18T09:43:25.131Z,1008.38
2017-04-18T09:44:25.146Z,1008.42
2017-04-18T09:45:25.162Z,1008.45
2017-04-18T09:46:25.177Z,1008.47
2017-04-18T09:47:25.197Z,1008.5
2017-04-18T09:48:25.209Z,1008.55
2017-04-18T09:49:25.226Z,1008.54
2017-04-18T09:50:25.241Z,1008.61
2017-04-18T09:51:25.259Z,1008.55
2017-04-18T09:52:25.273Z,1008.62
2017-04-18T09:53:25.289Z,1008.62
2017-04-18T09:54:25.307Z,1008.6
2017-04-18T09:55:25.321Z,1008.62
2017-04-18T09:56:25.338Z,1008.65
2017-04-18T09:57:25.353Z,1008.65
2017-04-18T09:58:25.370Z,1008.66
2017-04-18T09:59:25.385Z,1008.7
2017-04-18T10:00:25.402Z,1008.64
2017-04-18T10:01:25.420Z,1008.7
2017-04-18T10:02:25.437Z,1008.68
2017-04-18T10:03:25.452Z,1008.74
2017-04-18T10:04:25.468Z,1008.76
2017-04-18T10:05:25.486Z,1008.76
2017-04-18T10:06:25.501Z,1008.75
2017-04-18T10:07:25.517Z,1008.79
2017-04-18T10:08:25.535Z,1008.81
2017-04-18T10:09:25.550Z,1008.78
2017-04-18T10:10:25.568Z,1008.83
2017-04-18T10:11:25.583Z,1008.79
2017-04-18T10:12:25.599Z,1008.79
2017-04-18T10:13:25.616Z,1008.81
2017-04-18T10:14:25.632Z,1008.76
2017-04-18T10:15:25.648Z,1008.88
2017-04-18T10:16:25.667Z,1008.81
2017-04-18T10:17:25.683Z,1008.82
2017-04-18T10:18:25.698Z,1008.81
2017-04-18T10:19:25.718Z,1008.83
2017-04-18T10:20:25.732Z,1008.9
2017-04-18T10:21:25.750Z,1008.86
2017-04-18T10:22:25.765Z,1008.87
2017-04-18T10:23:25.784Z,1008.83
2017-04-18T10:24:25.799Z,1008.9
2017-04-18T10:25:25.817Z,1008.82
2017-04-18T10:26:25.836Z,1008.84
2017-04-18T10:27:25.853Z,1008.88
2017-04-18T10:28:25.867Z,1008.89
2017-04-18T10:29:25.883Z,1008.94
2017-04-18T10:30:25.900Z,1008.94
2017-04-18T10:31:25.917Z,1008.96
2017-04-18T10:32:25.935Z,1008.99
2017-04-18T10:33:25.952Z,1008.97
2017-04-18T10:34:25.969Z,1008.99
2017-04-18T10:35:25.985Z,1008.99
2017-04-18T10:36:26.001Z,1009.01
2017-04-18T10:37:26.022Z,1009.03
2017-04-18T10:38:26.037Z,1009.08
2017-04-18T10:39:26.053Z,1008.97
2017-04-18T10:40:26.072Z,1009.06
2017-04-18T10:41:26.088Z,1009.05
2017-04-18T10:42:26.104Z,1009.12
2017-04-18T10:43:26.121Z,1009.07
2017-04-18T10:44:26.138Z,1009.11
2017-04-18T10:45:26.155Z,1009.15
2017-04-18T10:46:26.172Z,1009.15
2017-04-18T10:47:26.190Z,1009.17
2017-04-18T10:48:26.208Z,1009.12
2017-04-18T10:49:26.223Z,1009.19
2017-04-18T10:50:26.242Z,1009.13
2017-04-18T10:51:26.258Z,1009.17
2017-04-18T10:52:26.276Z,1009.16
2017-04-18T10:53:26.294Z,1009.17
2017-04-18T10:54:26.310Z,1009.23
2017-04-18T10:55:26.328Z,1009.21
2017-04-18T10:56:26.346Z,1009.23
2017-04-18T10:57:26.361Z,1009.24
2017-04-18T10:58:26.384Z,1009.25
2017-04-18T10:59:26.398Z,1009.24
2017-04-18T11:00:26.415Z,1009.28
2017-04-18T11:01:26.433Z,1009.29
2017-04-18T11:02:26.454Z,1009.35
2017-04-18T11:03:26.466Z,1009.31
2017-04-18T11:04:26.485Z,1009.3
2017-04-18T11:05:26.504Z,1009.37
2017-04-18T11:06:26.519Z,1009.41
2017-04-18T11:07:26.536Z,1009.45
2017-04-18T11:08:26.553Z,1009.39
2017-04-18T11:09:26.571Z,1009.49
2017-04-18T11:10:26.589Z,1009.42
2017-04-18T11:11:26.607Z,1009.45
2017-04-18T11:12:26.624Z,1009.45
2017-04-18T11:13:26.641Z,1009.51
2017-04-18T11:14:26.658Z,1009.47
2017-04-18T11:15:26.675Z,1009.48
2017-04-18T11:16:26.692Z,1009.5
2017-04-18T11:17:26.712Z,1009.51
2017-04-18T11:18:26.728Z,1009.51
2017-04-18T11:19:26.745Z,1009.6
2017-04-18T11:20:26.764Z,1009.62
2017-04-18T11:21:26.781Z,1009.59
2017-04-18T11:22:26.798Z,1009.58
2017-04-18T11:23:26.816Z,1009.62
2017-04-18T11:24:26.834Z,1009.6
2017-04-18T11:25:26.851Z,1009.69
2017-04-18T11:26:26.869Z,1009.67
2017-04-18T11:27:26.886Z,1009.75
2017-04-18T11:28:26.906Z,1009.7
2017-04-18T11:29:26.921Z,1009.72
2017-04-18T11:30:26.938Z,1009.77
2017-04-18T11:31:26.958Z,1009.75
2017-04-18T11:32:26.975Z,1009.74
2017-04-18T11:33:26.993Z,1009.75
2017-04-18T11:34:27.009Z,1009.8
2017-04-18T11:35:27.028Z,1009.79
2017-04-18T11:36:27.046Z,1009.79
2017-04-18T11:37:27.065Z,1009.75
2017-04-18T11:38:27.081Z,1009.78
2017-04-18T11:39:27.101Z,1009.79
2017-04-18T11:40:27.119Z,1009.84
2017-04-18T11:41:27.137Z,1009.85
2017-04-18T11:42:27.153Z,1009.82
2017-04-18T11:43:27.174Z,1009.89
2017-04-18T11:44:27.190Z,1009.87
2017-04-18T11:45:27.207Z,1009.86
2017-04-18T11:46:27.226Z,1009.85
2017-04-18T11:47:27.244Z,1009.84
2017-04-18T11:48:27.261Z,1009.94
2017-04-18T11:49:27.279Z,1009.88
2017-04-18T11:50:27.300Z,1009.91
2017-04-18T11:51:27.317Z,1009.86
2017-04-18T11:52:27.332Z,1009.91
2017-04-18T11:53:27.352Z,1009.86
2017-04-18T11:54:27.369Z,1009.88
2017-04-18T11:55:27.388Z,1009.93
2017-04-18T11:56:27.404Z,1009.86
2017-04-18T11:57:27.423Z,1009.89
2017-04-18T11:58:27.441Z,1009.87
2017-04-18T11:59:27.459Z,1009.9
2017-04-18T12:00:27.478Z,1009.83
2017-04-18T12:01:27.497Z,1009.87
2017-04-18T12:02:27.513Z,1009.87
2017-04-18T12:03:27.530Z,1009.91
2017-04-18T12:04:27.550Z,1009.97
2017-04-18T12:05:27.569Z,1010
2017-04-18T12:06:27.586Z,1010.02
2017-04-18T12:07:27.605Z,1010
2017-04-18T12:08:27.622Z,1010.02